Union City, New Jersey
Current Conditions -  °F | °C
As of 10:51 PM on Tuesday 21 Oct 2014 (Local Time) from KNYC Reporting Station
Haze Haze  
Wind Chill: 56°   Ceiling: Unl
Heat Index: 56°   Visibility: 6mi
Dew Point: 53°   Wind: 5mph
Humidity: 90%   Direction: NA
Pressure: 29.93"   Gusts: NA
Location:  40.77°N, 74.02°W
Report Text: KNYC 220251Z AUTO VRB04KT 6SM BR CLR 13/12 A2993 RMK AO2 SLP126 60011 T01330117 51011 $
Loading
Personal Weather Stations






























Interactive Weather Map
Tropical Storm Tracking
New forecast layout! Learn more

10-Day Weather Forecast

Advertisements
Track Severe Weather on mobile